KDET/DET METAR and TAF weather

Enter ICAO airport designator
Station Type Date Time Source
KDET METAR 2021/09/28 16:53 UTC NOAA

KDET 281653Z 10SM CLR 21/10 A3002 RMK AO2 SLP164 T02110100


Station Type Date Time Source
KDET Decoded METAR 2021/09/28 16:53 UTC NOAA

DETROIT CITY AIRPORT, MI, United States (KDET) 42-25N 083-01W 190M
Sep 28, 2021 - 12:53 PM EDT / 2021.09.28 1653 UTC
Visibility: 10 mile(s):0
Sky conditions: clear
Temperature: 70.0 F (21.1 C)
Dew Point: 50.0 F (10.0 C)
Relative Humidity: 49%
Pressure (altimeter): 30.02 in. Hg (1016 hPa)
ob: KDET 281653Z 10SM CLR 21/10 A3002 RMK AO2 SLP164 T02110100
cycle: 17

Station Type Date Time Source
KDET TAF 2021/09/28 15:09 UTC NOAA

TAF
AMD KDET 281507Z 2815/2912 04008KT P6SM SCT025
FM290100 VRB03KT P6SM SKC

Example: see airport list